Time;durP1;ratioP1;P1;durP2;ratioP2;P2;SDS_P1;SDS_P2;PMS_P1;PMS_P2;Temp;Humidity;BMP_temperature;BMP_pressure;BME280_temperature;BME280_humidity;BME280_pressure;Samples;Min_cycle;Max_cycle;Signal;HPM_P1;HPM_P2
2022/01/07 03:46:57;;;;;;;14.55;7.43;;;-2.00;94.00;;;;;;5117639;24;20126;-79
2022/01/07 03:49:23;;;;;;;15.77;7.87;;;-2.00;94.10;;;;;;4798128;29;20031;-79
2022/01/07 03:51:48;;;;;;;11.95;6.45;;;-2.00;94.20;;;;;;4816036;29;20046;-78
2022/01/07 03:54:14;;;;;;;14.17;7.97;;;-2.00;94.00;;;;;;4801245;29;20141;-78
2022/01/07 03:56:40;;;;;;;12.95;7.22;;;-2.00;93.90;;;;;;4771271;29;20038;-79
2022/01/07 03:59:06;;;;;;;14.20;7.47;;;-2.00;94.10;;;;;;4801031;29;20102;-79
2022/01/07 04:01:31;;;;;;;18.27;8.07;;;-2.00;94.00;;;;;;4800703;29;20083;-79
2022/01/07 04:03:57;;;;;;;19.95;8.02;;;-2.00;94.00;;;;;;4800954;29;20079;-79
2022/01/07 04:06:23;;;;;;;18.03;7.83;;;-2.00;94.40;;;;;;4815554;29;20027;-79
2022/01/07 04:08:50;;;;;;;13.57;6.93;;;-2.10;94.30;;;;;;4800604;29;20035;-79
2022/01/07 04:11:18;;;;;;;14.77;7.15;;;-2.10;94.20;;;;;;4815690;29;20031;-79
2022/01/07 04:13:44;;;;;;;12.57;7.30;;;-2.10;94.10;;;;;;4815792;29;20034;-79
2022/01/07 04:16:11;;;;;;;17.23;7.88;;;-2.10;94.20;;;;;;4800547;29;20037;-79
2022/01/07 04:18:36;;;;;;;15.38;6.93;;;-2.20;94.10;;;;;;4800739;29;20286;-79
2022/01/07 04:21:03;;;;;;;14.38;7.55;;;-2.20;94.20;;;;;;4800705;29;20055;-79
2022/01/07 04:23:29;;;;;;;20.25;7.80;;;-2.10;94.30;;;;;;4800986;29;20273;-79
2022/01/07 04:25:55;;;;;;;14.30;8.25;;;-2.10;94.30;;;;;;4800852;29;20030;-79
2022/01/07 04:28:21;;;;;;;18.13;7.83;;;-2.20;94.40;;;;;;4800957;29;20035;-78
2022/01/07 04:30:47;;;;;;;18.75;8.45;;;-2.20;94.50;;;;;;4800874;29;20037;-80
2022/01/07 04:33:15;;;;;;;16.43;9.23;;;-2.20;94.70;;;;;;4800867;29;20038;-79
2022/01/07 04:35:43;;;;;;;18.55;9.30;;;-2.20;96.10;;;;;;4794746;29;20058;-78
2022/01/07 04:38:09;;;;;;;16.98;8.73;;;-2.10;97.20;;;;;;4809612;29;20035;-78
2022/01/07 04:40:35;;;;;;;25.45;9.07;;;-2.10;97.20;;;;;;4800400;29;20075;-79
2022/01/07 04:43:03;;;;;;;16.27;8.38;;;-2.00;97.50;;;;;;4782566;29;20349;-78
2022/01/07 04:45:29;;;;;;;14.38;7.30;;;-2.00;97.30;;;;;;4784819;29;20042;-78
2022/01/07 04:47:55;;;;;;;16.38;7.97;;;-1.90;97.10;;;;;;4806218;29;20027;-79
2022/01/07 04:50:22;;;;;;;17.73;8.23;;;-1.90;97.00;;;;;;4782628;30;20051;-79
2022/01/07 04:52:48;;;;;;;;;;;-1.90;96.70;;;;;;4791650;29;20034;-79
2022/01/07 04:55:23;;;;;;;19.33;8.57;;;-1.90;96.60;;;;;;4815454;29;19920;-79
2022/01/07 04:57:50;;;;;;;16.98;8.40;;;-1.90;96.80;;;;;;4815268;29;20394;-79
2022/01/07 05:00:19;;;;;;;16.35;7.53;;;-1.90;96.40;;;;;;4800227;29;20042;-79
2022/01/07 05:02:45;;;;;;;13.02;6.88;;;-2.00;96.20;;;;;;4790721;29;20074;-79
2022/01/07 05:05:11;;;;;;;13.70;6.80;;;-2.00;96.10;;;;;;4785950;29;20034;-79
2022/01/07 05:07:37;;;;;;;14.85;8.48;;;-2.00;96.00;;;;;;4782817;30;20212;-79
2022/01/07 05:10:08;;;;;;;14.45;8.00;;;-2.00;96.00;;;;;;4813175;29;20042;-79
2022/01/07 05:12:34;;;;;;;22.25;8.52;;;-2.10;95.70;;;;;;4790521;30;20110;-79
2022/01/07 05:15:01;;;;;;;12.10;7.00;;;-2.10;95.50;;;;;;4796417;29;20034;-78
2022/01/07 05:17:27;;;;;;;16.65;7.65;;;-2.10;95.60;;;;;;4786153;30;20107;-79
2022/01/07 05:19:52;;;;;;;19.98;8.00;;;-2.20;95.90;;;;;;4790647;29;20087;-78
2022/01/07 05:22:18;;;;;;;18.10;8.33;;;-2.20;95.60;;;;;;4788206;29;20050;-79
2022/01/07 05:24:44;;;;;;;13.33;7.53;;;-2.30;95.70;;;;;;4803210;29;20034;-78
2022/01/07 05:27:10;;;;;;;14.90;6.57;;;-2.20;95.50;;;;;;4773689;29;20291;-78
2022/01/07 05:29:36;;;;;;;19.90;8.10;;;-2.30;95.50;;;;;;4784346;30;20076;-78
2022/01/07 05:32:04;;;;;;;23.83;8.43;;;-2.30;95.40;;;;;;4781804;29;20062;-79
2022/01/07 05:34:29;;;;;;;19.08;8.18;;;-2.30;95.30;;;;;;4797282;30;20029;-79
2022/01/07 05:36:55;;;;;;;16.77;9.27;;;-2.30;95.30;;;;;;4784009;29;20046;-79
2022/01/07 05:39:21;;;;;;;16.57;8.50;;;-2.40;95.50;;;;;;4784692;29;20057;-78
2022/01/07 05:41:47;;;;;;;15.85;8.68;;;-2.40;95.60;;;;;;4800936;29;20030;-79
2022/01/07 05:44:13;;;;;;;17.23;8.83;;;-2.40;95.70;;;;;;4782016;29;20034;-78
2022/01/07 05:46:38;;;;;;;22.30;9.73;;;-2.40;95.90;;;;;;4790437;29;20055;-79
2022/01/07 05:49:05;;;;;;;19.57;8.50;;;-2.40;95.80;;;;;;4769777;29;20277;-77
2022/01/07 05:51:30;;;;;;;15.20;8.17;;;-2.50;95.80;;;;;;4813625;29;20022;-78
2022/01/07 05:53:56;;;;;;;20.13;7.33;;;-2.50;95.90;;;;;;4794883;29;20231;-78
2022/01/07 05:56:23;;;;;;;15.85;7.95;;;-2.50;96.00;;;;;;4772170;30;20051;-78
2022/01/07 05:58:49;;;;;;;16.73;8.07;;;-2.50;95.90;;;;;;4773530;29;20122;-79
2022/01/07 06:01:15;;;;;;;15.93;7.38;;;-2.50;96.00;;;;;;4784029;29;20327;-79
2022/01/07 06:03:41;;;;;;;16.70;7.93;;;-2.50;96.00;;;;;;4766777;30;20047;-78
2022/01/07 06:06:07;;;;;;;11.93;6.40;;;-2.50;96.20;;;;;;4796342;30;20286;-78
2022/01/07 06:08:33;;;;;;;17.50;8.30;;;-2.50;96.00;;;;;;4793956;29;20315;-78
2022/01/07 06:10:59;;;;;;;17.10;6.37;;;-2.50;96.10;;;;;;4769702;29;20389;-79
2022/01/07 06:13:25;;;;;;;13.10;6.57;;;-2.50;96.10;;;;;;4799090;29;20041;-78
2022/01/07 06:15:51;;;;;;;14.95;6.75;;;-2.50;95.90;;;;;;4787612;29;20099;-78
2022/01/07 06:18:17;;;;;;;14.82;6.72;;;-2.60;95.80;;;;;;4811352;29;20042;-78
2022/01/07 06:20:43;;;;;;;13.35;5.85;;;-2.60;95.90;;;;;;4808827;29;20071;-78
2022/01/07 06:23:09;;;;;;;14.85;6.70;;;-2.60;95.90;;;;;;4805632;29;20096;-79
2022/01/07 06:25:35;;;;;;;15.00;6.15;;;-2.60;96.00;;;;;;4781073;29;20046;-78
2022/01/07 06:28:00;;;;;;;10.87;6.23;;;-2.60;95.90;;;;;;4783015;29;20091;-78
2022/01/07 06:30:26;;;;;;;14.63;6.60;;;-2.60;96.00;;;;;;4805408;29;20133;-79
2022/01/07 06:32:53;;;;;;;29.43;10.10;;;-2.60;95.90;;;;;;4800925;29;20114;-78
2022/01/07 06:35:19;;;;;;;26.88;8.55;;;-2.60;96.20;;;;;;4801984;29;20035;-78
2022/01/07 06:37:45;;;;;;;17.73;9.13;;;-2.60;96.20;;;;;;4787365;29;20113;-78
2022/01/07 06:40:12;;;;;;;23.13;10.48;;;-2.70;96.10;;;;;;4780624;29;20038;-78
2022/01/07 06:42:38;;;;;;;36.50;10.48;;;-2.70;96.10;;;;;;4814599;29;20034;-78
2022/01/07 06:45:05;;;;;;;18.70;9.43;;;-2.70;96.20;;;;;;4794892;29;20050;-78
2022/01/07 06:47:31;;;;;;;27.08;10.93;;;-2.70;96.50;;;;;;4798043;29;20275;-77
2022/01/07 06:49:57;;;;;;;22.23;9.73;;;-2.60;96.40;;;;;;4823355;29;20342;-79
2022/01/07 06:52:23;;;;;;;25.80;10.93;;;-2.70;96.90;;;;;;4780816;29;20035;-79
2022/01/07 06:54:49;;;;;;;29.37;10.23;;;-2.60;96.70;;;;;;4806764;29;20076;-79
2022/01/07 06:57:15;;;;;;;56.40;20.10;;;-2.60;96.50;;;;;;4796383;29;20027;-79
2022/01/07 06:59:41;;;;;;;40.90;14.87;;;-2.60;97.00;;;;;;4795636;29;20035;-79
2022/01/07 07:02:07;;;;;;;36.80;12.10;;;-2.60;97.50;;;;;;4764173;29;20376;-79
2022/01/07 07:04:33;;;;;;;27.50;10.02;;;-2.40;98.20;;;;;;4800057;29;20338;-79
2022/01/07 07:06:59;;;;;;;21.95;8.85;;;-2.30;98.40;;;;;;4796021;29;20058;-78
2022/01/07 07:09:25;;;;;;;17.10;7.77;;;-2.30;98.20;;;;;;4792706;29;20031;-79
2022/01/07 07:11:51;;;;;;;18.93;7.93;;;-2.20;98.00;;;;;;4793725;29;20043;-79
2022/01/07 07:14:17;;;;;;;16.33;8.03;;;-2.10;97.60;;;;;;4810439;29;20034;-78
2022/01/07 07:16:43;;;;;;;17.52;7.03;;;-2.10;97.40;;;;;;4792098;29;20089;-78
2022/01/07 07:19:09;;;;;;;14.50;6.68;;;-2.00;97.20;;;;;;4796507;29;20053;-79
2022/01/07 07:21:35;;;;;;;17.17;6.80;;;-2.00;97.00;;;;;;4807872;29;20027;-78
2022/01/07 07:24:02;;;;;;;14.60;6.97;;;-1.90;96.80;;;;;;4807539;29;20069;-79
2022/01/07 07:26:28;;;;;;;16.90;7.47;;;-1.90;96.70;;;;;;4812393;29;20051;-78
2022/01/07 07:28:53;;;;;;;19.90;6.80;;;-1.90;96.60;;;;;;4782605;29;20050;-79
2022/01/07 07:31:22;;;;;;;17.35;6.93;;;-1.90;96.50;;;;;;4811142;29;20031;-79
2022/01/07 07:36:30;;;;;;;15.47;6.53;;;-1.80;96.60;;;;;;4791452;29;20027;-80
2022/01/07 07:39:02;;;;;;;15.13;6.38;;;-1.80;96.40;;;;;;4790325;29;21233;-79
2022/01/07 07:41:28;;;;;;;16.52;6.80;;;-1.70;96.20;;;;;;4809084;29;20526;-79
2022/01/07 07:43:56;;;;;;;;;;;-1.60;95.90;;;;;;4809848;29;20063;-78
2022/01/07 07:46:23;;;;;;;18.15;6.55;;;-1.60;96.10;;;;;;4795949;29;19992;-80
2022/01/07 07:48:48;;;;;;;;;;;-1.60;96.10;;;;;;4796335;29;20106;-80
2022/01/07 07:51:15;;;;;;;19.80;6.90;;;-1.50;96.20;;;;;;4786524;29;19921;-79
2022/01/07 07:53:41;;;;;;;18.67;7.40;;;-1.50;96.40;;;;;;4809815;29;20327;-79
2022/01/07 07:56:13;;;;;;;16.70;5.22;;;-1.40;96.50;;;;;;4792418;29;20043;-80
2022/01/07 07:58:40;;;;;;;11.30;5.53;;;-1.20;96.40;;;;;;4787295;30;20031;-80
2022/01/07 08:01:06;;;;;;;13.38;5.97;;;-1.10;96.60;;;;;;4796922;29;20023;-80
2022/01/07 08:03:32;;;;;;;13.23;6.00;;;-1.00;96.30;;;;;;4778397;29;20053;-80
2022/01/07 08:05:59;;;;;;;14.95;5.70;;;-0.80;96.10;;;;;;4806998;29;20034;-79
2022/01/07 08:08:24;;;;;;;18.67;5.13;;;-0.70;95.80;;;;;;4793554;29;20034;-80
2022/01/07 08:10:54;;;;;;;14.48;5.20;;;-0.60;95.50;;;;;;4790295;29;20047;-80
2022/01/07 08:13:28;;;;;;;17.25;5.50;;;-0.50;95.30;;;;;;4811798;29;20041;-80
2022/01/07 08:15:58;;;;;;;13.18;6.35;;;-0.40;95.10;;;;;;4796894;29;20037;-80
2022/01/07 08:18:44;;;;;;;15.23;7.03;;;-0.20;94.70;;;;;;4783874;29;20330;-80
2022/01/07 08:21:11;;;;;;;16.63;7.38;;;-0.10;94.30;;;;;;4809006;29;20268;-80
2022/01/07 08:23:40;;;;;;;17.27;6.53;;;0.00;94.20;;;;;;4799277;29;20635;-82
2022/01/07 08:26:09;;;;;;;12.60;5.57;;;0.10;93.90;;;;;;4773846;29;20066;-80
2022/01/07 08:28:58;;;;;;;15.85;5.18;;;0.20;93.60;;;;;;4786100;29;20039;-81
2022/01/07 08:34:53;;;;;;;12.82;5.18;;;0.30;93.50;;;;;;4770534;30;20039;-81
2022/01/07 08:36:59;;;;;;;13.55;4.90;;;0.50;92.90;;;;;;4811321;29;20296;-81
2022/01/07 08:39:25;;;;;;;13.38;4.38;;;0.60;93.10;;;;;;4784874;29;20046;-81
2022/01/07 08:41:51;;;;;;;9.65;4.82;;;0.70;92.50;;;;;;4798154;29;20034;-79
2022/01/07 08:44:17;;;;;;;11.15;5.43;;;0.80;92.40;;;;;;4796878;29;20092;-80
2022/01/07 08:46:43;;;;;;;21.52;5.68;;;0.90;92.30;;;;;;4793077;29;20347;-80
2022/01/07 08:49:09;;;;;;;13.57;6.15;;;1.00;92.10;;;;;;4783628;29;20042;-80
2022/01/07 08:51:35;;;;;;;33.70;5.90;;;1.00;91.90;;;;;;4799985;29;20212;-79
2022/01/07 08:54:02;;;;;;;14.75;5.18;;;1.10;91.90;;;;;;4798552;29;20117;-79
2022/01/07 08:56:27;;;;;;;17.23;5.75;;;1.10;91.70;;;;;;4794941;29;20461;-80
2022/01/07 08:58:55;;;;;;;15.30;6.18;;;1.20;91.80;;;;;;4772176;29;20114;-79
2022/01/07 09:01:22;;;;;;;10.80;4.65;;;1.30;91.60;;;;;;4773426;29;20331;-80
2022/01/07 09:03:48;;;;;;;10.18;5.10;;;1.30;90.90;;;;;;4786323;29;20314;-80
2022/01/07 09:06:14;;;;;;;11.57;5.05;;;1.40;91.00;;;;;;4782883;29;20034;-79
2022/01/07 09:08:40;;;;;;;15.98;5.10;;;1.40;90.70;;;;;;4796450;29;20073;-79
2022/01/07 09:11:05;;;;;;;21.58;4.97;;;1.40;90.60;;;;;;4814338;29;20027;-79
2022/01/07 09:13:31;;;;;;;15.70;5.43;;;1.40;90.30;;;;;;4809863;29;20098;-79
2022/01/07 09:15:57;;;;;;;15.60;7.13;;;1.50;90.30;;;;;;4799462;29;20059;-79
2022/01/07 09:18:24;;;;;;;16.65;6.15;;;1.60;90.50;;;;;;4784063;29;20046;-79
2022/01/07 09:20:49;;;;;;;20.52;5.50;;;1.60;89.90;;;;;;4791963;29;20331;-79
2022/01/07 09:23:16;;;;;;;9.70;4.97;;;1.70;90.00;;;;;;4799392;29;20074;-79
2022/01/07 09:25:43;;;;;;;11.40;4.80;;;1.70;90.00;;;;;;4769542;29;20035;-79
2022/01/07 09:28:09;;;;;;;16.20;5.63;;;1.80;89.50;;;;;;4814102;29;20035;-79
2022/01/07 09:30:36;;;;;;;16.58;4.88;;;1.90;88.70;;;;;;4798448;29;20062;-79
2022/01/07 09:33:02;;;;;;;19.50;5.45;;;2.00;88.30;;;;;;4783945;29;20050;-79
2022/01/07 09:35:28;;;;;;;13.50;5.65;;;2.00;88.10;;;;;;4799036;29;20054;-80
2022/01/07 09:37:54;;;;;;;14.10;6.05;;;2.10;87.90;;;;;;4769291;29;20042;-79
2022/01/07 09:40:21;;;;;;;12.97;5.40;;;2.20;87.40;;;;;;4797758;29;20484;-79
2022/01/07 09:43:01;;;;;;;17.33;4.82;;;2.20;87.70;;;;;;4795391;29;20084;-79
2022/01/07 09:45:28;;;;;;;15.80;5.80;;;2.30;87.60;;;;;;4806214;29;20281;-79
2022/01/07 09:47:55;;;;;;;11.20;5.28;;;2.40;86.70;;;;;;4804446;29;20063;-78
2022/01/07 09:50:22;;;;;;;11.10;5.30;;;2.40;86.30;;;;;;4779465;29;20030;-80
2022/01/07 09:52:47;;;;;;;11.50;4.13;;;2.50;86.20;;;;;;4811939;29;20061;-79
2022/01/07 09:55:13;;;;;;;10.93;4.00;;;2.60;85.30;;;;;;4785580;29;20355;-78
2022/01/07 09:57:39;;;;;;;12.75;4.82;;;2.70;84.10;;;;;;4799955;29;20099;-78
2022/01/07 10:00:08;;;;;;;11.45;4.07;;;2.70;83.70;;;;;;4793309;29;20342;-79
2022/01/07 10:02:38;;;;;;;9.27;3.45;;;2.80;83.30;;;;;;4804196;29;20082;-80
2022/01/07 10:05:17;;;;;;;9.20;3.73;;;2.90;82.40;;;;;;4789530;29;20110;-79
2022/01/07 10:07:43;;;;;;;9.02;4.40;;;3.00;82.20;;;;;;4808242;29;20027;-80
2022/01/07 10:10:16;;;;;;;14.30;3.45;;;3.10;82.60;;;;;;4793565;29;20050;-79
2022/01/07 10:13:00;;;;;;;7.85;3.20;;;3.10;81.20;;;;;;4812666;29;20034;-79
2022/01/07 10:15:28;;;;;;;11.65;4.10;;;3.20;80.50;;;;;;4815303;29;20089;-79
2022/01/07 10:17:56;;;;;;;8.10;3.88;;;3.30;80.80;;;;;;4809383;29;20034;-80
2022/01/07 10:20:37;;;;;;;10.20;4.47;;;3.40;80.70;;;;;;4810754;29;20077;-78
2022/01/07 10:23:24;;;;;;;9.63;3.17;;;3.50;80.00;;;;;;4811734;29;20087;-79
2022/01/07 10:25:52;;;;;;;;;;;3.60;78.80;;;;;;4798386;29;20046;-79
2022/01/07 10:28:20;;;;;;;11.57;3.28;;;3.60;76.50;;;;;;4811484;29;19917;-79
2022/01/07 10:30:49;;;;;;;10.48;3.58;;;3.70;77.10;;;;;;4794156;29;20100;-79
2022/01/07 10:33:24;;;;;;;7.60;2.90;;;3.80;76.80;;;;;;4812981;29;20027;-79
2022/01/07 10:35:53;;;;;;;10.60;5.00;;;4.00;75.30;;;;;;4793963;30;20080;-79
2022/01/07 10:38:22;;;;;;;6.05;2.58;;;4.10;73.50;;;;;;4790078;29;20048;-79
2022/01/07 10:40:50;;;;;;;10.10;2.92;;;4.00;72.80;;;;;;4801824;29;20034;-79
2022/01/07 10:43:19;;;;;;;7.25;2.60;;;4.00;72.20;;;;;;4771897;29;20041;-79
2022/01/07 10:45:58;;;;;;;8.45;3.05;;;4.00;71.10;;;;;;4815758;29;20041;-79
2022/01/07 10:48:39;;;;;;;6.30;2.67;;;4.10;71.50;;;;;;4816671;29;20039;-79
2022/01/07 10:51:07;;;;;;;10.68;3.17;;;4.10;70.90;;;;;;4817468;29;20027;-79
2022/01/07 10:53:34;;;;;;;6.70;2.70;;;4.20;70.50;;;;;;4816301;29;20103;-79
2022/01/07 10:56:16;;;;;;;10.68;2.72;;;4.00;68.70;;;;;;4815195;29;20327;-79
2022/01/07 10:58:49;;;;;;;5.60;2.60;;;4.00;69.00;;;;;;4800306;29;20050;-79
2022/01/07 11:01:21;;;;;;;12.38;2.88;;;4.00;69.10;;;;;;4793985;29;20034;-80
2022/01/07 11:03:48;;;;;;;11.75;4.25;;;4.00;69.80;;;;;;4806270;29;20072;-80
2022/01/07 11:06:14;;;;;;;;;;;4.00;70.30;;;;;;4775616;29;20102;-80
2022/01/07 11:08:40;;;;;;;8.20;3.73;;;4.00;70.20;;;;;;4804571;29;19972;-80
2022/01/07 11:11:08;;;;;;;7.35;3.33;;;4.00;70.70;;;;;;4795315;29;20276;-81
2022/01/07 11:13:35;;;;;;;8.18;3.40;;;4.00;71.60;;;;;;4809553;29;20354;-81
2022/01/07 11:16:05;;;;;;;6.30;3.08;;;4.00;70.80;;;;;;4810308;29;20208;-82
2022/01/07 11:18:32;;;;;;;13.38;5.60;;;4.00;70.70;;;;;;4800454;29;20084;-80
2022/01/07 11:21:01;;;;;;;21.35;11.30;;;3.90;70.90;;;;;;4800830;29;20026;-81
2022/01/07 11:23:29;;;;;;;24.88;11.73;;;3.90;70.80;;;;;;4781097;29;20058;-80
2022/01/07 11:26:04;;;;;;;28.33;9.70;;;3.90;70.90;;;;;;4801280;29;20046;-81
2022/01/07 11:28:30;;;;;;;62.08;26.40;;;3.90;71.50;;;;;;4808424;29;20046;-80
2022/01/07 11:31:14;;;;;;;16.67;6.28;;;4.00;71.00;;;;;;4810133;29;20106;-80
2022/01/07 11:33:40;;;;;;;19.13;6.95;;;4.00;71.10;;;;;;4809857;29;20110;-81
2022/01/07 11:36:11;;;;;;;15.68;6.90;;;4.00;70.60;;;;;;4795665;29;20110;-80
2022/01/07 11:38:46;;;;;;;12.25;4.32;;;4.10;70.80;;;;;;4784370;29;20059;-80
2022/01/07 11:41:45;;;;;;;14.95;3.95;;;4.10;70.50;;;;;;4796905;29;20037;-80
2022/01/07 11:44:13;;;;;;;6.97;2.70;;;4.20;69.80;;;;;;4811194;29;20203;-81
2022/01/07 11:46:39;;;;;;;11.45;4.13;;;4.20;68.80;;;;;;4809942;29;20224;-81
2022/01/07 11:49:05;;;;;;;7.30;3.03;;;4.20;69.30;;;;;;4795775;29;20045;-81
2022/01/07 11:51:39;;;;;;;9.25;2.85;;;4.20;68.10;;;;;;4808332;29;20026;-82
2022/01/07 11:54:08;;;;;;;8.18;4.07;;;4.20;67.60;;;;;;4799464;29;20027;-82
2022/01/07 11:56:35;;;;;;;8.80;3.85;;;4.20;67.00;;;;;;4772673;29;20032;-82
2022/01/07 11:59:23;;;;;;;7.72;3.85;;;4.20;66.00;;;;;;4794079;29;20023;-81
2022/01/07 12:01:57;;;;;;;8.60;3.35;;;4.10;65.20;;;;;;4806199;29;20238;-81
2022/01/07 12:04:27;;;;;;;5.18;2.28;;;4.20;66.30;;;;;;4807793;29;20068;-81
2022/01/07 12:06:55;;;;;;;6.80;2.42;;;4.20;66.40;;;;;;4796939;29;20039;-82
2022/01/07 12:09:34;;;;;;;5.85;2.92;;;4.30;66.10;;;;;;4793690;29;20026;-82
2022/01/07 12:12:01;;;;;;;6.22;2.40;;;4.30;65.40;;;;;;4804951;29;20283;-82
2022/01/07 12:14:35;;;;;;;;;;;4.30;65.00;;;;;;4794543;29;20368;-82
2022/01/07 12:17:02;;;;;;;5.03;2.75;;;4.30;64.50;;;;;;4804522;29;19909;-81
2022/01/07 12:19:49;;;;;;;8.02;2.70;;;4.30;63.50;;;;;;4792559;29;20023;-81
2022/01/07 12:22:16;;;;;;;8.00;3.17;;;4.30;64.50;;;;;;4804641;29;20280;-82
2022/01/07 12:24:43;;;;;;;9.55;5.03;;;4.40;63.90;;;;;;4794868;29;20334;-81
2022/01/07 12:27:19;;;;;;;8.30;3.42;;;4.40;64.50;;;;;;4805474;29;20043;-82
2022/01/07 12:29:48;;;;;;;6.35;3.55;;;4.50;63.80;;;;;;4806960;29;20322;-80
2022/01/07 12:32:19;;;;;;;7.93;3.38;;;4.40;63.70;;;;;;4795016;29;20442;-80
2022/01/07 12:34:49;;;;;;;12.35;4.63;;;4.50;63.40;;;;;;4803236;29;20271;-80
2022/01/07 12:37:20;;;;;;;7.55;3.17;;;4.50;64.10;;;;;;4808723;29;20039;-80
2022/01/07 12:39:52;;;;;;;9.73;5.15;;;4.50;64.20;;;;;;4793841;29;20431;-80
2022/01/07 12:42:19;;;;;;;5.45;3.15;;;4.50;64.20;;;;;;4793672;29;20045;-80
2022/01/07 12:44:46;;;;;;;8.20;3.38;;;4.50;63.80;;;;;;4805596;29;20031;-80
2022/01/07 12:47:17;;;;;;;6.55;3.00;;;4.50;63.30;;;;;;4789954;29;20251;-80
2022/01/07 12:49:46;;;;;;;10.00;2.80;;;4.50;63.40;;;;;;4806602;29;20033;-82
2022/01/07 12:52:26;;;;;;;11.48;3.95;;;4.40;62.60;;;;;;4798099;29;20039;-80
2022/01/07 12:54:59;;;;;;;7.88;3.00;;;4.40;62.50;;;;;;4811931;29;20333;-80
2022/01/07 12:57:31;;;;;;;8.02;3.55;;;4.40;63.20;;;;;;4787966;29;20042;-80
2022/01/07 13:00:03;;;;;;;10.80;4.75;;;4.50;62.90;;;;;;4811520;29;20035;-80
2022/01/07 13:02:29;;;;;;;10.25;4.05;;;4.50;61.90;;;;;;4813998;29;20046;-81
2022/01/07 13:05:31;;;;;;;9.90;4.32;;;4.40;61.40;;;;;;4799556;29;20109;-81
2022/01/07 13:08:11;;;;;;;16.33;6.78;;;4.40;60.50;;;;;;4799671;29;20046;-81
2022/01/07 13:10:41;;;;;;;15.60;4.95;;;4.50;61.10;;;;;;4814767;29;20226;-81
2022/01/07 13:13:12;;;;;;;11.90;3.85;;;4.50;61.00;;;;;;4814546;29;20046;-80
2022/01/07 13:15:51;;;;;;;13.05;3.33;;;4.40;59.90;;;;;;4799508;29;20031;-80
2022/01/07 13:18:27;;;;;;;11.13;3.42;;;4.40;60.20;;;;;;4792304;29;20031;-80
2022/01/07 13:21:14;;;;;;;9.77;4.35;;;4.40;59.70;;;;;;4800881;29;20102;-80
2022/01/07 13:23:49;;;;;;;8.02;4.10;;;4.40;60.20;;;;;;4811650;29;20042;-80
2022/01/07 13:26:16;;;;;;;12.95;5.35;;;4.30;60.20;;;;;;4797067;30;20230;-81
2022/01/07 13:28:49;;;;;;;17.77;7.27;;;4.30;60.80;;;;;;4803096;29;20335;-80
2022/01/07 13:31:20;;;;;;;60.83;24.45;;;4.30;61.10;;;;;;4809026;29;20035;-80
2022/01/07 13:33:53;;;;;;;93.88;36.28;;;4.40;62.10;;;;;;4791349;29;20110;-81
2022/01/07 13:36:18;;;;;;;64.07;23.30;;;4.40;61.70;;;;;;4768300;29;20331;-81
2022/01/07 13:38:59;;;;;;;313.08;110.28;;;4.30;61.70;;;;;;4784366;29;20145;-81
2022/01/07 13:41:25;;;;;;;32.75;11.65;;;4.30;61.60;;;;;;4778076;29;20034;-81
2022/01/07 13:43:50;;;;;;;29.90;13.60;;;4.20;60.60;;;;;;4773396;29;20238;-81
2022/01/07 13:46:24;;;;;;;19.55;13.55;;;4.20;60.20;;;;;;4840663;29;20118;-81
2022/01/07 13:48:53;;;;;;;12.77;4.60;;;4.10;61.00;;;;;;4806746;29;20030;-82
2022/01/07 13:51:20;;;;;;;12.10;7.85;;;4.20;61.30;;;;;;4806598;29;20053;-81
2022/01/07 13:54:07;;;;;;;7.15;4.00;;;4.10;60.30;;;;;;4809790;29;20063;-82
2022/01/07 13:56:34;;;;;;;13.40;5.65;;;4.10;61.00;;;;;;4823939;29;20039;-81
2022/01/07 13:59:02;;;;;;;12.55;4.30;;;4.00;61.40;;;;;;4808525;29;20039;-82
2022/01/07 14:01:29;;;;;;;8.13;3.85;;;4.00;61.40;;;;;;4808668;29;20039;-81
2022/01/07 14:03:55;;;;;;;7.53;3.53;;;4.00;61.50;;;;;;4824937;29;20065;-83
2022/01/07 14:06:24;;;;;;;11.00;3.58;;;4.00;61.80;;;;;;4780375;29;20289;-82
2022/01/07 14:09:09;;;;;;;9.90;3.63;;;4.00;61.60;;;;;;4809711;29;20023;-82
2022/01/07 14:11:35;;;;;;;13.68;4.85;;;3.90;60.80;;;;;;4798345;29;20387;-82
2022/01/07 14:14:18;;;;;;;17.27;5.67;;;3.90;60.30;;;;;;4790958;29;20345;-82
2022/01/07 14:16:47;;;;;;;11.05;3.95;;;3.90;60.50;;;;;;4810931;29;20039;-82
2022/01/07 14:19:14;;;;;;;8.75;3.40;;;3.80;61.10;;;;;;4800328;29;20038;-80
2022/01/07 14:21:41;;;;;;;9.20;3.28;;;3.80;60.90;;;;;;4808848;29;20346;-81
2022/01/07 14:24:10;;;;;;;6.50;3.78;;;3.80;60.60;;;;;;4805625;29;20350;-81
2022/01/07 14:26:47;;;;;;;7.78;2.95;;;3.80;60.20;;;;;;4785429;29;20074;-81
2022/01/07 14:29:14;;;;;;;5.22;2.58;;;3.70;59.90;;;;;;4801378;29;20042;-81
2022/01/07 14:31:40;;;;;;;8.75;3.00;;;3.70;60.50;;;;;;4771645;29;20118;-81
2022/01/07 14:34:06;;;;;;;5.85;2.83;;;3.70;59.80;;;;;;4799058;29;20061;-81
2022/01/07 14:36:32;;;;;;;7.32;3.13;;;3.70;60.00;;;;;;4799148;30;20077;-81
2022/01/07 14:38:58;;;;;;;8.45;3.50;;;3.60;59.60;;;;;;4785356;30;20215;-81
2022/01/07 14:41:24;;;;;;;6.40;3.22;;;3.70;60.20;;;;;;4813885;29;20342;-81
2022/01/07 14:43:52;;;;;;;13.20;4.18;;;3.60;60.60;;;;;;4798935;30;20047;-81
2022/01/07 14:46:17;;;;;;;8.95;3.85;;;3.60;60.20;;;;;;4800938;29;20055;-81
2022/01/07 14:48:43;;;;;;;8.77;3.40;;;3.50;60.00;;;;;;4798473;30;20112;-81
2022/01/07 14:51:09;;;;;;;4.68;2.88;;;3.40;59.70;;;;;;4783807;30;20050;-81
2022/01/07 14:53:35;;;;;;;5.15;2.35;;;3.40;60.40;;;;;;4793674;29;20046;-81
2022/01/07 14:56:01;;;;;;;7.93;3.42;;;3.40;60.70;;;;;;4817085;29;20023;-81
2022/01/07 14:58:27;;;;;;;6.15;3.20;;;3.30;60.80;;;;;;4795063;29;20043;-82
2022/01/07 15:00:54;;;;;;;7.13;3.03;;;3.30;61.10;;;;;;4783429;29;20038;-82
2022/01/07 15:03:22;;;;;;;10.57;3.47;;;3.20;60.90;;;;;;4789208;29;20031;-81
2022/01/07 15:05:47;;;;;;;10.10;3.17;;;3.20;61.30;;;;;;4772108;29;20061;-81
2022/01/07 15:08:13;;;;;;;10.55;3.65;;;3.10;61.50;;;;;;4801504;29;20046;-81
2022/01/07 15:10:39;;;;;;;7.00;3.30;;;3.10;61.80;;;;;;4801399;29;20045;-81
2022/01/07 15:13:07;;;;;;;14.03;3.73;;;3.00;62.30;;;;;;4786271;29;20088;-81
2022/01/07 15:18:17;;;;;;;10.43;3.75;;;2.90;62.80;;;;;;4800711;29;20098;-82
2022/01/07 15:20:43;;;;;;;11.98;4.63;;;2.80;63.60;;;;;;4787289;29;20030;-83
2022/01/07 15:23:08;;;;;;;7.85;3.65;;;2.70;63.80;;;;;;4793998;29;20046;-82
2022/01/07 15:25:34;;;;;;;8.85;3.92;;;2.60;64.10;;;;;;4786125;29;20342;-82
2022/01/07 15:28:00;;;;;;;10.35;4.03;;;2.50;64.60;;;;;;4794942;29;20274;-82
2022/01/07 15:30:26;;;;;;;9.63;3.85;;;2.50;64.90;;;;;;4815405;29;20106;-82
2022/01/07 15:32:52;;;;;;;10.82;4.22;;;2.40;65.10;;;;;;4801162;29;20242;-82
2022/01/07 15:35:19;;;;;;;6.72;3.78;;;2.40;65.50;;;;;;4771421;29;20233;-82
2022/01/07 15:37:46;;;;;;;10.45;5.00;;;2.30;65.60;;;;;;4771735;29;20039;-82
2022/01/07 15:40:13;;;;;;;11.52;4.03;;;2.20;66.00;;;;;;4816154;29;20035;-82
2022/01/07 15:42:41;;;;;;;13.40;5.05;;;2.20;66.50;;;;;;4786411;29;20039;-82
2022/01/07 15:45:07;;;;;;;10.50;3.97;;;2.10;66.50;;;;;;4786326;29;20050;-81
2022/01/07 15:47:34;;;;;;;8.77;4.15;;;2.10;66.90;;;;;;4783556;29;20096;-82
2022/01/07 15:49:59;;;;;;;7.83;4.80;;;2.00;67.30;;;;;;4794773;29;20076;-82
2022/01/07 15:52:25;;;;;;;8.65;4.65;;;2.00;67.70;;;;;;4783334;29;20593;-82
2022/01/07 15:54:55;;;;;;;12.05;4.20;;;2.00;68.00;;;;;;4780708;29;20035;-82
2022/01/07 15:57:21;;;;;;;13.10;4.70;;;1.90;68.20;;;;;;4792603;29;20054;-82
2022/01/07 15:59:47;;;;;;;10.95;4.88;;;1.90;68.60;;;;;;4794592;29;20349;-82
2022/01/07 16:02:13;;;;;;;14.07;5.30;;;1.80;69.00;;;;;;4811758;29;20070;-82
2022/01/07 16:04:38;;;;;;;15.48;5.07;;;1.80;69.30;;;;;;4775872;29;20050;-82
2022/01/07 16:07:04;;;;;;;16.50;5.50;;;1.70;69.50;;;;;;4798499;29;20393;-82
2022/01/07 16:09:30;;;;;;;22.67;9.27;;;1.70;70.20;;;;;;4773978;29;20462;-81
2022/01/07 16:11:56;;;;;;;15.32;7.50;;;1.60;70.40;;;;;;4793933;29;20058;-82
2022/01/07 16:14:22;;;;;;;22.35;8.80;;;1.60;70.60;;;;;;4776632;29;20135;-82
2022/01/07 16:16:48;;;;;;;17.17;7.15;;;1.50;71.10;;;;;;4765861;29;20035;-82
2022/01/07 16:19:13;;;;;;;32.75;12.70;;;1.50;71.50;;;;;;4792097;29;20031;-82
2022/01/07 16:21:39;;;;;;;20.45;7.85;;;1.40;72.10;;;;;;4779614;29;20062;-82
2022/01/07 16:24:06;;;;;;;22.38;8.00;;;1.40;72.10;;;;;;4776098;29;20071;-82
2022/01/07 16:26:33;;;;;;;16.98;7.82;;;1.30;72.40;;;;;;4806618;29;20481;-82
2022/01/07 16:28:59;;;;;;;17.70;6.95;;;1.30;73.00;;;;;;4795983;29;20394;-82
2022/01/07 16:31:25;;;;;;;20.07;7.83;;;1.30;73.00;;;;;;4790940;29;20045;-82
2022/01/07 16:33:51;;;;;;;22.42;9.32;;;1.30;73.00;;;;;;4789462;29;20050;-82
2022/01/07 16:36:17;;;;;;;27.40;8.73;;;1.30;73.90;;;;;;4791783;29;20245;-82
2022/01/07 16:38:46;;;;;;;29.30;10.10;;;1.20;73.40;;;;;;4809919;29;20034;-81
2022/01/07 16:41:13;;;;;;;21.77;9.90;;;1.20;73.70;;;;;;4806132;29;20287;-82
2022/01/07 16:43:39;;;;;;;28.10;11.02;;;1.10;74.00;;;;;;4796145;29;20307;-82
2022/01/07 16:46:05;;;;;;;30.67;9.80;;;1.00;74.30;;;;;;4807099;29;20066;-82